createdAt,value
2022-10-30T00:01:22.298Z,-1.92
2022-10-30T00:03:50.327Z,-1.89
2022-10-30T00:08:51.270Z,-1.88
2022-10-30T00:11:19.268Z,-1.95
2022-10-30T00:13:48.690Z,-1.88
2022-10-30T00:16:17.519Z,-1.91
2022-10-30T00:18:45.616Z,-1.91
2022-10-30T00:21:15.909Z,-1.92
2022-10-30T00:23:48.628Z,-1.93
2022-10-30T00:26:17.249Z,-1.94
2022-10-30T00:28:45.248Z,-1.93
2022-10-30T00:31:14.140Z,-1.95
2022-10-30T00:33:42.143Z,-2.08
2022-10-30T00:36:10.162Z,-1.96
2022-10-30T00:38:39.108Z,-1.97
2022-10-30T00:41:07.037Z,-1.98
2022-10-30T00:43:40.949Z,-2.00
2022-10-30T00:46:15.171Z,-2.03
2022-10-30T00:48:46.690Z,-1.99
2022-10-30T00:51:15.547Z,-1.99
2022-10-30T00:53:46.882Z,-1.99
2022-10-30T00:56:19.552Z,-2.00
2022-10-30T00:59:01.197Z,-1.99
2022-10-30T01:01:33.582Z,-1.99
2022-10-30T01:04:06.023Z,-1.99
2022-10-30T01:06:36.933Z,-1.98
2022-10-30T01:09:06.045Z,-1.98
2022-10-30T01:11:35.228Z,-1.98
2022-10-30T01:14:07.329Z,-1.98
2022-10-30T01:16:47.803Z,-1.99
2022-10-30T01:19:23.207Z,-1.99
2022-10-30T01:21:58.838Z,-1.99
2022-10-30T01:24:32.949Z,-1.99
2022-10-30T01:27:27.787Z,-2.00
2022-10-30T01:30:21.074Z,-2.01
2022-10-30T01:33:16.257Z,-2.03
2022-10-30T01:35:49.797Z,-2.02
2022-10-30T01:38:29.129Z,-2.06
2022-10-30T01:40:57.133Z,-2.01
2022-10-30T01:43:25.161Z,-2.02
2022-10-30T01:46:14.756Z,-2.00
2022-10-30T01:49:06.273Z,-1.99
2022-10-30T01:51:57.116Z,-1.99
2022-10-30T01:54:30.905Z,-1.99
2022-10-30T01:57:08.012Z,-1.99
2022-10-30T02:00:10.894Z,-1.99
2022-10-30T02:02:39.231Z,-1.99
2022-10-30T02:05:10.459Z,-1.99
2022-10-30T02:07:38.570Z,-1.99
2022-10-30T02:10:07.117Z,-1.99
2022-10-30T02:12:35.121Z,-1.99
2022-10-30T02:15:25.451Z,-2.01
2022-10-30T02:17:54.691Z,-1.98
2022-10-30T02:20:23.107Z,-1.99
2022-10-30T02:22:57.968Z,-1.99
2022-10-30T02:25:27.691Z,-2.06
2022-10-30T02:27:58.812Z,-2.00
2022-10-30T02:30:26.872Z,-2.02
2022-10-30T02:32:54.998Z,-2.00
2022-10-30T02:35:23.386Z,-1.98
2022-10-30T02:37:51.301Z,-1.97
2022-10-30T02:40:19.249Z,-1.93
2022-10-30T02:42:55.757Z,-2.01
2022-10-30T02:45:23.991Z,-1.98
2022-10-30T02:47:52.011Z,-1.94
2022-10-30T02:50:21.176Z,-2.01
2022-10-30T02:52:49.161Z,-1.91
2022-10-30T02:55:17.357Z,-1.91
2022-10-30T02:57:45.513Z,-1.87
2022-10-30T03:00:14.146Z,-1.86
2022-10-30T03:02:42.116Z,-1.84
2022-10-30T03:05:11.224Z,-1.84
2022-10-30T03:07:39.219Z,-1.82
2022-10-30T03:10:07.397Z,-1.82
2022-10-30T03:12:38.425Z,-1.88
2022-10-30T03:15:06.992Z,-1.81
2022-10-30T03:17:36.809Z,-1.80
2022-10-30T03:20:07.635Z,-1.80
2022-10-30T03:22:35.661Z,-1.81
2022-10-30T03:25:04.091Z,-1.82
2022-10-30T03:27:32.836Z,-1.85
2022-10-30T03:30:00.836Z,-1.89
2022-10-30T03:32:28.814Z,-1.78
2022-10-30T03:34:57.002Z,-1.76
2022-10-30T03:37:24.967Z,-1.74
2022-10-30T03:39:52.989Z,-1.74
2022-10-30T03:42:21.148Z,-1.72
2022-10-30T03:44:49.052Z,-1.70
2022-10-30T03:47:17.016Z,-1.69
2022-10-30T03:49:49.116Z,-1.66
2022-10-30T03:52:17.138Z,-1.66
2022-10-30T03:54:45.049Z,-1.64
2022-10-30T03:57:13.180Z,-1.59
2022-10-30T03:59:41.157Z,-1.59
2022-10-30T04:02:09.366Z,-1.56
2022-10-30T04:04:38.604Z,-1.52
2022-10-30T04:07:06.543Z,-1.49
2022-10-30T04:09:34.568Z,-1.44
2022-10-30T04:12:02.689Z,-1.41
2022-10-30T04:14:30.602Z,-1.35
2022-10-30T04:16:58.605Z,-1.33
2022-10-30T04:19:28.641Z,-1.30
2022-10-30T04:21:56.569Z,-1.28
2022-10-30T04:24:24.759Z,-1.30
2022-10-30T04:26:53.279Z,-1.30
2022-10-30T04:29:21.474Z,-1.22
2022-10-30T04:31:49.467Z,-1.18
2022-10-30T04:34:20.236Z,-1.14
2022-10-30T04:36:48.281Z,-1.12
2022-10-30T04:39:16.297Z,-1.09
2022-10-30T04:41:44.420Z,-1.08
2022-10-30T04:44:12.356Z,-1.07
2022-10-30T04:46:40.250Z,-1.05
2022-10-30T04:49:08.445Z,-1.00
2022-10-30T04:51:36.548Z,-0.97
2022-10-30T04:54:04.610Z,-0.96
2022-10-30T04:56:34.108Z,-0.92
2022-10-30T04:59:02.155Z,-0.92
2022-10-30T05:01:30.286Z,-0.87
2022-10-30T05:03:59.779Z,-0.83
2022-10-30T05:06:33.450Z,-0.79
2022-10-30T05:09:01.554Z,-0.73
2022-10-30T05:11:30.000Z,-0.71
2022-10-30T05:13:57.984Z,-0.65
2022-10-30T05:16:26.028Z,-0.64
2022-10-30T05:18:55.109Z,-0.62
2022-10-30T05:21:23.430Z,-0.60
2022-10-30T05:23:51.438Z,-0.63
2022-10-30T05:26:20.669Z,-0.62
2022-10-30T05:28:48.649Z,-0.63
2022-10-30T05:31:16.668Z,-0.63
2022-10-30T05:33:44.809Z,-0.61
2022-10-30T05:36:12.735Z,-0.64
2022-10-30T05:38:40.749Z,-0.54
2022-10-30T05:41:09.830Z,-0.49
2022-10-30T05:43:37.753Z,-0.45
2022-10-30T05:46:05.884Z,-0.37
2022-10-30T05:48:34.460Z,-0.37
2022-10-30T05:51:03.043Z,-0.39
2022-10-30T05:53:31.314Z,-0.43
2022-10-30T05:56:00.392Z,-0.40
2022-10-30T05:58:28.395Z,-0.41
2022-10-30T06:00:56.293Z,-0.40
2022-10-30T06:03:24.360Z,-0.42
2022-10-30T06:05:53.650Z,-0.67
2022-10-30T06:08:21.713Z,-0.48
2022-10-30T06:10:49.649Z,-0.37
2022-10-30T06:13:17.763Z,-0.35
2022-10-30T06:15:46.358Z,-0.38
2022-10-30T06:18:14.475Z,-0.36
2022-10-30T06:20:44.491Z,-0.41
2022-10-30T06:23:12.466Z,-0.37
2022-10-30T06:25:41.538Z,-0.37
2022-10-30T06:28:14.660Z,-0.36
2022-10-30T06:30:42.724Z,-0.41
2022-10-30T06:33:11.353Z,-0.32
2022-10-30T06:35:40.364Z,-0.32
2022-10-30T06:38:09.401Z,-0.40
2022-10-30T06:40:37.396Z,-0.29
2022-10-30T06:43:05.518Z,-0.29
2022-10-30T06:45:34.104Z,-0.29
2022-10-30T06:48:04.711Z,-0.37
2022-10-30T06:50:33.944Z,-0.31
2022-10-30T06:53:01.953Z,-0.29
2022-10-30T06:55:30.007Z,-0.29
2022-10-30T06:58:01.771Z,-0.20
2022-10-30T07:00:30.134Z,-0.18
2022-10-30T07:03:01.663Z,-0.17
2022-10-30T07:05:30.492Z,-0.15
2022-10-30T07:07:58.913Z,-0.16
2022-10-30T07:10:26.999Z,-0.21
2022-10-30T07:12:58.214Z,-0.20
2022-10-30T07:15:28.058Z,-0.14
2022-10-30T07:18:03.708Z,-0.14
2022-10-30T07:20:36.386Z,-0.14
2022-10-30T07:23:06.261Z,-0.10
2022-10-30T07:25:34.214Z,-0.06
2022-10-30T07:28:05.573Z,-0.03
2022-10-30T07:30:33.554Z,-0.01
2022-10-30T07:33:04.020Z,0.01
2022-10-30T07:35:33.904Z,0.04
2022-10-30T07:38:11.528Z,0.00
2022-10-30T07:40:40.996Z,0.09
2022-10-30T07:43:13.931Z,0.10
2022-10-30T07:45:41.916Z,0.11
2022-10-30T07:48:10.912Z,0.09
2022-10-30T07:50:38.896Z,0.05
2022-10-30T07:53:06.847Z,0.04
2022-10-30T07:55:35.763Z,0.04
2022-10-30T07:58:03.688Z,0.05
2022-10-30T08:00:31.717Z,-0.24
2022-10-30T08:03:01.768Z,0.04
2022-10-30T08:05:30.606Z,0.08
2022-10-30T08:07:59.568Z,0.13
2022-10-30T08:10:29.810Z,0.12
2022-10-30T08:12:57.969Z,0.07
2022-10-30T08:15:26.028Z,0.13
2022-10-30T08:17:55.783Z,0.09
2022-10-30T08:20:25.667Z,0.20
2022-10-30T08:22:54.514Z,0.22
2022-10-30T08:25:26.712Z,0.17
2022-10-30T08:28:07.013Z,0.09
2022-10-30T08:30:38.244Z,0.03
2022-10-30T08:33:09.131Z,-0.01
2022-10-30T08:38:10.024Z,-0.09
2022-10-30T08:40:38.105Z,-0.11
2022-10-30T08:43:06.108Z,-0.12
2022-10-30T08:45:34.213Z,-0.24
2022-10-30T08:48:04.877Z,-0.17
2022-10-30T08:50:34.571Z,-0.20
2022-10-30T08:53:08.323Z,-0.20
2022-10-30T08:55:36.603Z,-0.20
2022-10-30T08:58:05.235Z,-0.18
2022-10-30T09:00:33.421Z,-0.16
2022-10-30T09:03:01.847Z,-0.16
2022-10-30T09:05:31.320Z,-0.21
2022-10-30T09:08:02.421Z,-0.17
2022-10-30T09:10:31.319Z,-0.20
2022-10-30T09:13:00.595Z,-0.20
2022-10-30T09:15:29.040Z,-0.21
2022-10-30T09:18:02.281Z,-0.24
2022-10-30T09:20:32.055Z,-0.23
2022-10-30T09:23:00.777Z,-0.26
2022-10-30T09:25:29.338Z,-0.25
2022-10-30T09:27:57.336Z,-0.27
2022-10-30T09:30:27.457Z,-0.26
2022-10-30T09:32:59.701Z,-0.26
2022-10-30T09:35:28.248Z,-0.27
2022-10-30T09:37:57.886Z,-0.30
2022-10-30T09:40:50.863Z,-0.30
2022-10-30T09:43:52.162Z,-0.35
2022-10-30T09:46:44.901Z,-0.37
2022-10-30T09:49:35.955Z,-0.42
2022-10-30T09:52:07.082Z,-0.44
2022-10-30T09:54:53.368Z,-0.47
2022-10-30T09:57:34.041Z,-0.55
2022-10-30T10:00:18.648Z,-0.54
2022-10-30T10:02:59.919Z,-0.58
2022-10-30T10:05:37.983Z,-0.56
2022-10-30T10:08:14.078Z,-0.57
2022-10-30T10:10:46.784Z,-0.57
2022-10-30T10:13:26.810Z,-0.58
2022-10-30T10:16:14.855Z,-0.60
2022-10-30T10:18:52.908Z,-0.61
2022-10-30T10:21:30.039Z,-0.63
2022-10-30T10:24:04.528Z,-0.68
2022-10-30T10:26:54.799Z,-0.66
2022-10-30T10:29:49.035Z,-0.68
2022-10-30T10:32:34.394Z,-0.68
2022-10-30T10:35:02.309Z,-0.70
2022-10-30T10:38:37.538Z,-0.72
2022-10-30T10:41:28.200Z,-0.76
2022-10-30T10:44:15.533Z,-0.78
2022-10-30T10:47:17.082Z,-0.82
2022-10-30T10:50:12.230Z,-0.85
2022-10-30T10:52:52.477Z,-0.85
2022-10-30T10:55:27.891Z,-0.85
2022-10-30T10:58:00.458Z,-0.86
2022-10-30T11:00:31.187Z,-0.86
2022-10-30T11:03:07.928Z,-0.87
2022-10-30T11:05:59.150Z,-0.88
2022-10-30T11:08:32.140Z,-0.89
2022-10-30T11:11:05.983Z,-0.90
2022-10-30T11:13:43.322Z,-0.90
2022-10-30T11:16:17.106Z,-0.89
2022-10-30T11:18:47.629Z,-0.90
2022-10-30T11:21:23.582Z,-0.91
2022-10-30T11:23:52.389Z,-0.91
2022-10-30T11:26:26.351Z,-0.91
2022-10-30T11:29:00.194Z,-0.97
2022-10-30T11:31:41.334Z,-0.94
2022-10-30T11:34:18.450Z,-0.95
2022-10-30T11:36:52.165Z,-0.94
2022-10-30T11:39:38.042Z,-0.95
2022-10-30T11:42:15.296Z,-0.94
2022-10-30T11:44:51.591Z,-0.94
2022-10-30T11:47:32.972Z,-0.94
2022-10-30T11:50:08.657Z,-0.96
2022-10-30T11:52:43.735Z,-0.93
2022-10-30T11:55:21.400Z,-0.94
2022-10-30T11:57:53.147Z,-0.93
2022-10-30T12:00:28.457Z,-0.93
2022-10-30T12:03:01.428Z,-0.94
2022-10-30T12:05:44.871Z,-1.18
2022-10-30T12:08:24.671Z,-0.97
2022-10-30T12:10:53.543Z,-0.99
2022-10-30T12:13:23.807Z,-1.01
2022-10-30T12:16:16.588Z,-1.02
2022-10-30T12:19:04.969Z,-1.04
2022-10-30T12:21:43.592Z,-1.05
2022-10-30T12:24:32.649Z,-1.07
2022-10-30T12:27:11.322Z,-1.06
2022-10-30T12:30:09.214Z,-1.08
2022-10-30T12:32:53.549Z,-1.10
2022-10-30T12:35:45.552Z,-1.11
2022-10-30T12:38:42.889Z,-1.14
2022-10-30T12:41:27.112Z,-1.15
2022-10-30T12:44:14.439Z,-1.18
2022-10-30T12:47:22.897Z,-1.22
2022-10-30T12:52:48.017Z,-1.29
2022-10-30T12:55:26.331Z,-1.29
2022-10-30T12:58:06.357Z,-1.30
2022-10-30T13:00:42.439Z,-1.32
2022-10-30T13:03:28.579Z,-1.33
2022-10-30T13:06:08.222Z,-1.35
2022-10-30T13:08:39.643Z,-1.37
2022-10-30T13:11:22.975Z,-1.46
2022-10-30T13:13:53.861Z,-1.43
2022-10-30T13:16:34.558Z,-1.45
2022-10-30T13:19:04.548Z,-1.48
2022-10-30T13:21:51.608Z,-1.50
2022-10-30T13:24:45.709Z,-1.49
2022-10-30T13:27:35.062Z,-1.56
2022-10-30T13:30:07.398Z,-1.52
2022-10-30T13:33:06.364Z,-1.52
2022-10-30T13:36:03.702Z,-1.51
2022-10-30T13:38:44.280Z,-1.50
2022-10-30T13:41:58.709Z,-1.50
2022-10-30T13:44:53.151Z,-1.50
2022-10-30T13:47:56.345Z,-1.50
2022-10-30T13:50:48.763Z,-1.50
2022-10-30T13:53:26.687Z,-1.50
2022-10-30T13:55:58.106Z,-1.50
2022-10-30T13:58:40.772Z,-1.51
2022-10-30T14:01:22.156Z,-1.53
2022-10-30T14:04:05.130Z,-1.58
2022-10-30T14:06:37.196Z,-1.61
2022-10-30T14:09:29.936Z,-1.65
2022-10-30T14:12:23.644Z,-1.79
2022-10-30T14:14:51.644Z,-1.73
2022-10-30T14:17:19.637Z,-1.78
2022-10-30T14:20:15.835Z,-1.83
2022-10-30T14:22:44.043Z,-1.87
2022-10-30T14:25:20.304Z,-1.91
2022-10-30T14:27:57.670Z,-1.95
2022-10-30T14:30:31.507Z,-1.98
2022-10-30T14:32:59.488Z,-2.07
2022-10-30T14:35:36.499Z,-2.05
2022-10-30T14:38:10.464Z,-2.09
2022-10-30T14:40:48.594Z,-2.11
2022-10-30T14:43:34.181Z,-2.14
2022-10-30T14:46:13.566Z,-2.20
2022-10-30T14:48:55.364Z,-2.26
2022-10-30T14:51:38.811Z,-2.29
2022-10-30T14:54:28.482Z,-2.30
2022-10-30T14:56:58.271Z,-2.33
2022-10-30T14:59:36.598Z,-2.37
2022-10-30T15:02:07.562Z,-2.42
2022-10-30T15:04:53.547Z,-2.45
2022-10-30T15:07:40.431Z,-2.52
2022-10-30T15:10:29.707Z,-2.57
2022-10-30T15:13:10.901Z,-2.62
2022-10-30T15:15:39.105Z,-2.65
2022-10-30T15:18:18.097Z,-2.71
2022-10-30T15:20:53.121Z,-3.23
2022-10-30T15:23:30.759Z,-2.80
2022-10-30T15:26:09.451Z,-2.82
2022-10-30T15:28:42.253Z,-2.85
2022-10-30T15:31:19.311Z,-2.90
2022-10-30T15:33:48.806Z,-2.93
2022-10-30T15:36:22.429Z,-2.96
2022-10-30T15:39:16.832Z,-2.98
2022-10-30T15:42:00.649Z,-2.98
2022-10-30T15:44:39.649Z,-3.00
2022-10-30T15:47:15.946Z,-3.30
2022-10-30T15:49:51.434Z,-3.04
2022-10-30T15:52:23.502Z,-3.09
2022-10-30T15:55:23.859Z,-3.10
2022-10-30T15:58:09.663Z,-3.15
2022-10-30T16:00:39.806Z,-3.19
2022-10-30T16:03:13.587Z,-3.21
2022-10-30T16:05:41.746Z,-3.25
2022-10-30T16:08:27.424Z,-3.25
2022-10-30T16:10:56.811Z,-3.32
2022-10-30T16:13:32.369Z,-3.32
2022-10-30T16:16:02.615Z,-3.35
2022-10-30T16:18:36.500Z,-3.39
2022-10-30T16:21:09.352Z,-3.44
2022-10-30T16:23:43.492Z,-3.48
2022-10-30T16:26:24.897Z,-3.53
2022-10-30T16:28:52.919Z,-3.56
2022-10-30T16:31:22.046Z,-3.57
2022-10-30T16:33:50.407Z,-3.70
2022-10-30T16:36:19.278Z,-3.66
2022-10-30T16:38:49.716Z,-3.68
2022-10-30T16:41:25.713Z,-3.70
2022-10-30T16:44:25.059Z,-3.72
2022-10-30T16:47:02.019Z,-3.75
2022-10-30T16:49:35.691Z,-3.77
2022-10-30T16:52:08.464Z,-3.82
2022-10-30T16:54:42.833Z,-3.84
2022-10-30T16:57:19.100Z,-3.84
2022-10-30T16:59:51.708Z,-3.88
2022-10-30T17:02:26.986Z,-3.90
2022-10-30T17:05:01.410Z,-3.92
2022-10-30T17:07:30.975Z,-3.94
2022-10-30T17:09:59.163Z,-4.02
2022-10-30T17:12:29.679Z,-3.98
2022-10-30T17:15:15.213Z,-4.01
2022-10-30T17:17:43.559Z,-4.03
2022-10-30T17:20:14.130Z,-4.05
2022-10-30T17:22:42.782Z,-4.08
2022-10-30T17:25:36.401Z,-4.12
2022-10-30T17:28:05.636Z,-4.14
2022-10-30T17:30:42.272Z,-4.15
2022-10-30T17:33:27.596Z,-4.15
2022-10-30T17:35:55.772Z,-4.23
2022-10-30T17:38:23.985Z,-4.18
2022-10-30T17:40:53.122Z,-4.19
2022-10-30T17:43:21.301Z,-4.20
2022-10-30T17:45:49.813Z,-4.23
2022-10-30T17:48:18.967Z,-4.25
2022-10-30T17:50:47.032Z,-4.27
2022-10-30T17:53:23.570Z,-4.27
2022-10-30T17:56:04.490Z,-4.29
2022-10-30T17:58:32.622Z,-4.32
2022-10-30T18:01:01.336Z,-4.37
2022-10-30T18:03:29.443Z,-4.46
2022-10-30T18:05:59.317Z,-4.47
2022-10-30T18:08:27.432Z,-4.73
2022-10-30T18:10:55.505Z,-4.53
2022-10-30T18:13:24.457Z,-4.58
2022-10-30T18:15:59.397Z,-4.62
2022-10-30T18:18:28.387Z,-4.65
2022-10-30T18:20:56.363Z,-4.65
2022-10-30T18:23:51.187Z,-4.64
2022-10-30T18:26:19.039Z,-4.64
2022-10-30T18:28:48.317Z,-4.66
2022-10-30T18:31:19.603Z,-4.71
2022-10-30T18:33:49.725Z,-4.75
2022-10-30T18:36:23.989Z,-4.77
2022-10-30T18:38:59.222Z,-5.00
2022-10-30T18:41:34.355Z,-4.76
2022-10-30T18:44:02.695Z,-4.80
2022-10-30T18:46:35.713Z,-4.92
2022-10-30T18:49:03.732Z,-4.99
2022-10-30T18:51:31.702Z,-4.98
2022-10-30T18:54:02.694Z,-4.99
2022-10-30T18:56:33.301Z,-5.01
2022-10-30T18:59:02.570Z,-5.08
2022-10-30T19:01:36.740Z,-5.02
2022-10-30T19:04:06.898Z,-5.08
2022-10-30T19:06:34.975Z,-5.07
2022-10-30T19:09:03.153Z,-5.34
2022-10-30T19:11:31.775Z,-5.15
2022-10-30T19:14:00.826Z,-5.20
2022-10-30T19:16:29.179Z,-5.22
2022-10-30T19:18:57.123Z,-5.22
2022-10-30T19:21:27.061Z,-5.26
2022-10-30T19:24:03.724Z,-5.28
2022-10-30T19:26:31.642Z,-5.30
2022-10-30T19:28:59.606Z,-5.32
2022-10-30T19:31:27.868Z,-5.41
2022-10-30T19:33:57.427Z,-5.36
2022-10-30T19:36:30.437Z,-5.34
2022-10-30T19:39:00.067Z,-5.35
2022-10-30T19:44:03.966Z,-5.41
2022-10-30T19:46:32.078Z,-5.34
2022-10-30T19:49:00.623Z,-5.35
2022-10-30T19:51:29.668Z,-5.37
2022-10-30T19:53:58.020Z,-5.37
2022-10-30T19:56:26.036Z,-5.74
2022-10-30T19:58:53.952Z,-5.41
2022-10-30T20:01:23.947Z,-5.42
2022-10-30T20:03:53.288Z,-5.43
2022-10-30T20:06:22.087Z,-5.44
2022-10-30T20:08:51.211Z,-5.50
2022-10-30T20:11:19.206Z,-5.56
2022-10-30T20:13:50.598Z,-5.61
2022-10-30T20:16:22.638Z,-5.66
2022-10-30T20:18:51.525Z,-5.75
2022-10-30T20:21:20.986Z,-5.80
2022-10-30T20:23:50.397Z,-5.85
2022-10-30T20:26:25.958Z,-5.90
2022-10-30T20:28:55.420Z,-5.98
2022-10-30T20:31:23.397Z,-6.00
2022-10-30T20:33:51.342Z,-6.08
2022-10-30T20:36:19.594Z,-6.10
2022-10-30T20:38:47.774Z,-6.26
2022-10-30T20:41:29.513Z,-6.26
2022-10-30T20:43:57.632Z,-6.34
2022-10-30T20:46:25.688Z,-6.36
2022-10-30T20:48:53.626Z,-6.34
2022-10-30T20:51:25.913Z,-6.33
2022-10-30T20:53:54.106Z,-6.29
2022-10-30T20:56:22.092Z,-6.34
2022-10-30T20:58:50.359Z,-6.30
2022-10-30T21:01:18.609Z,-6.41
2022-10-30T21:03:47.537Z,-6.39
2022-10-30T21:06:16.456Z,-6.46
2022-10-30T21:08:44.398Z,-6.48
2022-10-30T21:11:12.353Z,-6.49
2022-10-30T21:13:41.388Z,-6.54
2022-10-30T21:16:10.345Z,-6.61
2022-10-30T21:18:38.347Z,-6.57
2022-10-30T21:21:09.328Z,-6.57
2022-10-30T21:23:37.326Z,-6.52
2022-10-30T21:26:11.589Z,-6.49
2022-10-30T21:28:43.198Z,-6.48
2022-10-30T21:31:13.940Z,-6.48
2022-10-30T21:33:42.080Z,-6.49
2022-10-30T21:36:15.399Z,-6.51
2022-10-30T21:38:47.623Z,-6.40
2022-10-30T21:41:20.452Z,-6.38
2022-10-30T21:43:57.479Z,-6.34
2022-10-30T21:46:28.341Z,-6.33
2022-10-30T21:48:56.902Z,-6.36
2022-10-30T21:51:27.270Z,-6.44
2022-10-30T21:53:58.691Z,-6.49
2022-10-30T21:56:28.919Z,-6.50
2022-10-30T21:58:59.864Z,-6.52
2022-10-30T22:01:31.459Z,-6.54
2022-10-30T22:04:00.958Z,-6.58
2022-10-30T22:06:30.178Z,-6.59
2022-10-30T22:09:00.205Z,-6.67
2022-10-30T22:11:30.255Z,-6.80
2022-10-30T22:14:01.445Z,-6.80
2022-10-30T22:16:32.427Z,-6.83
2022-10-30T22:19:01.169Z,-6.88
2022-10-30T22:21:30.244Z,-6.94
2022-10-30T22:24:01.542Z,-7.02
2022-10-30T22:26:30.085Z,-7.09
2022-10-30T22:29:00.842Z,-7.10
2022-10-30T22:31:30.471Z,-7.17
2022-10-30T22:34:01.445Z,-7.23
2022-10-30T22:36:34.233Z,-7.29
2022-10-30T22:39:13.419Z,-7.35
2022-10-30T22:41:42.406Z,-7.39
2022-10-30T22:44:15.067Z,-7.42
2022-10-30T22:46:46.377Z,-7.42
2022-10-30T22:49:14.368Z,-7.49
2022-10-30T22:51:42.293Z,-7.50
2022-10-30T22:54:14.016Z,-7.59
2022-10-30T22:56:42.812Z,-7.72
2022-10-30T22:59:15.236Z,-7.79
2022-10-30T23:01:45.753Z,-7.86
2022-10-30T23:04:16.676Z,-7.98
2022-10-30T23:06:45.493Z,-7.88
2022-10-30T23:09:25.784Z,-7.82
2022-10-30T23:11:53.739Z,-7.85
2022-10-30T23:14:21.717Z,-7.91
2022-10-30T23:16:50.644Z,-7.96
2022-10-30T23:19:18.585Z,-7.98
2022-10-30T23:21:46.524Z,-7.96
2022-10-30T23:24:14.740Z,-8.02
2022-10-30T23:26:42.739Z,-8.00
2022-10-30T23:29:10.699Z,-8.01
2022-10-30T23:31:41.896Z,-8.15
2022-10-30T23:34:15.382Z,-8.10
2022-10-30T23:36:45.122Z,-8.19
2022-10-30T23:39:19.474Z,-8.25
2022-10-30T23:41:47.498Z,-8.38
2022-10-30T23:44:16.825Z,-8.35
2022-10-30T23:46:44.689Z,-8.34
2022-10-30T23:49:12.774Z,-8.33
2022-10-30T23:51:40.744Z,-8.42
2022-10-30T23:54:11.697Z,-8.38
2022-10-30T23:56:39.663Z,-8.34
2022-10-30T23:59:07.730Z,-8.35
